Time;durP1;ratioP1;P1;durP2;ratioP2;P2;SDS_P1;SDS_P2;PMS_P1;PMS_P2;Temp;Humidity;BMP_temperature;BMP_pressure;BME280_temperature;BME280_humidity;BME280_pressure;Samples;Min_cycle;Max_cycle;Signal;HPM_P1;HPM_P2
2022/04/29 00:02:10;;;;;;;13.07;7.60;;;14.00;93.90;;;;;;5111924;28;20059;-64
2022/04/29 00:04:36;;;;;;;17.58;7.53;;;14.10;93.90;;;;;;5092454;28;20164;-64
2022/04/29 00:07:03;;;;;;;15.32;8.88;;;13.90;94.10;;;;;;5076404;28;20028;-64
2022/04/29 00:09:29;;;;;;;11.13;8.13;;;13.90;94.20;;;;;;5092333;28;20023;-64
2022/04/29 00:11:54;;;;;;;10.02;7.03;;;13.90;94.20;;;;;;5111138;28;20019;-64
2022/04/29 00:14:23;;;;;;;13.82;7.07;;;13.90;94.30;;;;;;5092412;28;20073;-64
2022/04/29 00:16:48;;;;;;;12.27;8.23;;;13.90;94.40;;;;;;5111425;28;20020;-64
2022/04/29 00:19:14;;;;;;;14.10;7.90;;;13.80;94.50;;;;;;5110887;28;20341;-63
2022/04/29 00:21:42;;;;;;;12.77;7.70;;;13.80;94.60;;;;;;5092508;28;20062;-64
2022/04/29 00:24:09;;;;;;;14.07;7.63;;;13.80;94.70;;;;;;5111145;28;20444;-64
2022/04/29 00:26:37;;;;;;;12.68;7.53;;;13.80;94.70;;;;;;5110736;28;20032;-64
2022/04/29 00:29:03;;;;;;;15.07;8.10;;;13.80;94.60;;;;;;5111379;28;20360;-63
2022/04/29 00:31:30;;;;;;;11.25;8.88;;;13.80;94.50;;;;;;5110676;28;20019;-64
2022/04/29 00:33:56;;;;;;;11.18;6.78;;;13.80;94.60;;;;;;5110959;28;20035;-63
2022/04/29 00:36:22;;;;;;;11.65;7.65;;;13.80;94.80;;;;;;5092281;28;20030;-65
2022/04/29 00:38:47;;;;;;;16.42;8.15;;;13.80;94.80;;;;;;5111081;28;20363;-64
2022/04/29 00:41:22;;;;;;;16.75;7.47;;;13.80;94.90;;;;;;5093069;28;20016;-64
2022/04/29 00:43:59;;;;;;;19.00;8.18;;;13.70;95.30;;;;;;5092451;28;20188;-64
2022/04/29 00:46:25;;;;;;;10.85;8.00;;;13.70;95.40;;;;;;5110285;28;20512;-65
2022/04/29 00:48:50;;;;;;;13.23;8.05;;;13.40;95.90;;;;;;5111102;28;20103;-64
2022/04/29 00:51:16;;;;;;;13.45;8.48;;;13.20;96.10;;;;;;5112885;28;20019;-64
2022/04/29 00:53:42;;;;;;;13.75;8.10;;;13.20;96.40;;;;;;5114448;28;20028;-64
2022/04/29 00:56:10;;;;;;;9.30;7.13;;;13.40;96.10;;;;;;5097076;28;20027;-63
2022/04/29 00:58:42;;;;;;;14.65;9.40;;;13.50;96.00;;;;;;5114336;28;20058;-64
2022/04/29 01:01:08;;;;;;;14.75;8.07;;;13.40;96.20;;;;;;5097027;28;20039;-63
2022/04/29 01:03:37;;;;;;;14.48;8.18;;;13.40;96.20;;;;;;5114090;28;20023;-64
2022/04/29 01:06:03;;;;;;;16.58;8.25;;;13.30;96.50;;;;;;5096317;28;20027;-64
2022/04/29 01:08:29;;;;;;;14.35;8.38;;;13.20;96.80;;;;;;5095823;28;20015;-64
2022/04/29 01:10:55;;;;;;;11.20;8.30;;;13.20;96.80;;;;;;5114914;28;20391;-64
2022/04/29 01:13:21;;;;;;;15.38;9.23;;;13.30;96.80;;;;;;5114138;28;20031;-64
2022/04/29 01:15:48;;;;;;;13.88;8.70;;;13.10;97.20;;;;;;5114379;28;20034;-63
2022/04/29 01:18:17;;;;;;;12.50;8.75;;;13.10;97.00;;;;;;5114091;28;20031;-64
2022/04/29 01:20:43;;;;;;;12.95;8.93;;;13.20;97.20;;;;;;5095573;28;20106;-64
2022/04/29 01:23:10;;;;;;;9.93;7.95;;;13.10;97.30;;;;;;5114065;28;20027;-65
2022/04/29 01:25:37;;;;;;;16.70;8.43;;;13.10;97.30;;;;;;5095321;28;20016;-64
2022/04/29 01:28:03;;;;;;;19.83;8.95;;;13.20;97.40;;;;;;5114448;28;20020;-65
2022/04/29 01:30:29;;;;;;;16.13;8.18;;;13.30;97.40;;;;;;5095390;28;20035;-64
2022/04/29 01:32:56;;;;;;;14.32;9.13;;;13.20;97.40;;;;;;5095711;28;20027;-65
2022/04/29 01:35:22;;;;;;;12.02;8.18;;;13.20;97.40;;;;;;5113630;28;20047;-64
2022/04/29 01:37:49;;;;;;;12.05;7.22;;;13.20;97.70;;;;;;5113837;28;20023;-65
2022/04/29 01:40:16;;;;;;;9.57;8.35;;;13.20;97.80;;;;;;5113650;28;20027;-64
2022/04/29 01:42:42;;;;;;;13.13;8.40;;;13.10;98.00;;;;;;5094661;28;20259;-63
2022/04/29 01:45:09;;;;;;;15.18;8.32;;;13.10;97.90;;;;;;5113582;28;20493;-64
2022/04/29 01:47:34;;;;;;;10.73;7.53;;;13.10;98.00;;;;;;5094938;28;20092;-64
2022/04/29 01:50:01;;;;;;;9.60;7.50;;;13.00;98.20;;;;;;5113637;28;20019;-64
2022/04/29 01:52:27;;;;;;;16.67;8.23;;;13.10;98.10;;;;;;5113165;28;20032;-65
2022/04/29 01:54:53;;;;;;;12.68;8.25;;;13.10;98.20;;;;;;5095585;28;20076;-64
2022/04/29 01:57:18;;;;;;;13.77;8.80;;;13.00;98.40;;;;;;5095557;28;20445;-65
2022/04/29 01:59:44;;;;;;;18.35;8.45;;;12.90;98.60;;;;;;5112998;28;20023;-65
2022/04/29 02:02:11;;;;;;;14.32;8.85;;;12.90;98.60;;;;;;5095255;28;20182;-64
2022/04/29 02:04:36;;;;;;;11.25;7.60;;;12.90;98.60;;;;;;5112777;28;20114;-64
2022/04/29 02:07:04;;;;;;;12.75;7.65;;;13.00;98.70;;;;;;5113596;28;20106;-65
2022/04/29 02:09:30;;;;;;;13.00;8.70;;;13.00;98.50;;;;;;5094537;28;20376;-63
2022/04/29 02:12:05;;;;;;;16.70;9.20;;;13.00;98.70;;;;;;5113717;28;20019;-64
2022/04/29 02:14:39;;;;;;;14.15;7.50;;;13.00;98.60;;;;;;5113068;28;20031;-64
2022/04/29 02:17:06;;;;;;;16.23;8.93;;;13.00;98.80;;;;;;5113439;28;20486;-65
2022/04/29 02:19:33;;;;;;;12.60;8.48;;;12.90;98.90;;;;;;5094199;28;20023;-64
2022/04/29 02:21:59;;;;;;;14.68;8.82;;;12.80;99.10;;;;;;5113308;28;20034;-64
2022/04/29 02:24:25;;;;;;;15.68;9.75;;;12.80;99.20;;;;;;5094063;28;20089;-65
2022/04/29 02:26:50;;;;;;;21.45;9.18;;;12.70;99.40;;;;;;5112743;28;20023;-64
2022/04/29 02:29:17;;;;;;;16.05;9.25;;;12.80;99.40;;;;;;5047682;22;20077;-71
2022/04/29 02:31:42;;;;;;;11.45;8.23;;;12.80;99.30;;;;;;5010557;28;20124;-70
2022/04/29 02:34:08;;;;;;;10.25;7.55;;;12.70;99.50;;;;;;5011148;28;20076;-70
2022/04/29 02:36:34;;;;;;;13.73;8.55;;;12.80;99.50;;;;;;5010582;28;20022;-70
2022/04/29 02:39:02;;;;;;;13.35;8.20;;;12.70;99.30;;;;;;5012152;28;20034;-70
2022/04/29 02:41:27;;;;;;;14.10;8.30;;;12.80;99.50;;;;;;5012008;28;20053;-71
2022/04/29 02:43:53;;;;;;;15.63;8.13;;;12.80;99.40;;;;;;5012139;28;20104;-70
2022/04/29 02:46:18;;;;;;;15.73;8.23;;;12.70;99.70;;;;;;5011097;28;20037;-71
2022/04/29 02:48:46;;;;;;;13.63;8.63;;;12.60;99.90;;;;;;5010488;28;20346;-72
2022/04/29 02:51:12;;;;;;;13.80;8.20;;;12.70;99.80;;;;;;5010600;28;20026;-71
2022/04/29 02:53:38;;;;;;;11.88;8.40;;;12.80;99.70;;;;;;5010333;28;20156;-71
2022/04/29 02:56:04;;;;;;;14.55;8.75;;;12.50;99.90;;;;;;5011894;28;20025;-70
2022/04/29 02:58:29;;;;;;;13.20;8.48;;;12.60;99.90;;;;;;5010150;28;20029;-69
2022/04/29 03:00:56;;;;;;;19.40;9.40;;;12.50;99.90;;;;;;5011030;28;20119;-70
2022/04/29 03:03:22;;;;;;;14.55;8.73;;;12.50;99.90;;;;;;5012044;28;20533;-70
2022/04/29 03:05:47;;;;;;;11.82;8.20;;;12.60;99.90;;;;;;5011291;28;20049;-70
2022/04/29 03:08:13;;;;;;;16.98;8.13;;;12.50;99.90;;;;;;5010261;28;20347;-70
2022/04/29 03:10:39;;;;;;;11.65;8.30;;;12.40;99.90;;;;;;5011358;28;20026;-70
2022/04/29 03:13:05;;;;;;;13.57;8.20;;;12.40;99.90;;;;;;5011720;28;20025;-71
2022/04/29 03:15:30;;;;;;;18.50;8.63;;;12.40;99.90;;;;;;5010878;28;20022;-70
2022/04/29 03:20:41;;;;;;;12.65;8.48;;;12.30;99.90;;;;;;5011162;28;20466;-70
2022/04/29 03:23:08;;;;;;;15.95;9.25;;;12.30;99.90;;;;;;5010238;28;20029;-72
2022/04/29 03:25:34;;;;;;;14.27;7.90;;;12.40;99.90;;;;;;5010810;28;20044;-69
2022/04/29 03:28:01;;;;;;;12.38;8.18;;;12.50;99.90;;;;;;5009925;28;20121;-69
2022/04/29 03:30:27;;;;;;;13.60;8.85;;;12.40;99.90;;;;;;5010241;28;20021;-70
2022/04/29 03:32:55;;;;;;;13.85;7.90;;;12.40;99.90;;;;;;5011127;28;20029;-71
2022/04/29 03:35:21;;;;;;;12.65;7.75;;;12.40;99.90;;;;;;5011192;28;20046;-70
2022/04/29 03:37:51;;;;;;;11.20;7.53;;;12.40;99.90;;;;;;5010853;28;20451;-71
2022/04/29 03:40:18;;;;;;;16.60;7.82;;;12.50;99.90;;;;;;5010203;28;20146;-71
2022/04/29 03:42:43;;;;;;;14.60;7.97;;;12.50;99.90;;;;;;5010494;28;20478;-72
2022/04/29 03:45:10;;;;;;;10.43;7.63;;;12.30;99.90;;;;;;5011451;28;20034;-71
2022/04/29 03:47:35;;;;;;;12.00;8.40;;;12.30;99.90;;;;;;5009409;28;20056;-71
2022/04/29 03:50:01;;;;;;;12.82;8.18;;;12.20;99.90;;;;;;5010976;28;20025;-69
2022/04/29 03:52:28;;;;;;;15.25;8.10;;;12.20;99.90;;;;;;5011309;28;20129;-71
2022/04/29 03:54:56;;;;;;;17.20;8.25;;;12.20;99.90;;;;;;5010948;28;20041;-71
2022/04/29 03:57:21;;;;;;;17.42;8.88;;;12.20;99.90;;;;;;5009746;28;20084;-70
2022/04/29 03:59:48;;;;;;;16.05;8.35;;;12.20;99.90;;;;;;5008965;28;20022;-71
2022/04/29 04:02:14;;;;;;;10.45;8.75;;;12.20;99.90;;;;;;5011176;28;20105;-72
2022/04/29 04:04:40;;;;;;;13.85;8.63;;;12.30;99.90;;;;;;5010171;28;20137;-69
2022/04/29 04:07:06;;;;;;;18.02;9.10;;;12.20;99.90;;;;;;5009189;28;20320;-70
2022/04/29 04:09:31;;;;;;;15.98;7.80;;;12.20;99.90;;;;;;5008968;28;20022;-70
2022/04/29 04:11:57;;;;;;;14.82;8.55;;;12.20;99.90;;;;;;5010532;28;20097;-70
2022/04/29 04:14:23;;;;;;;14.70;8.73;;;12.20;99.90;;;;;;5009492;28;20029;-71
2022/04/29 04:16:49;;;;;;;12.93;8.60;;;12.20;99.90;;;;;;5010325;28;20064;-71
2022/04/29 04:19:18;;;;;;;15.93;9.25;;;12.20;99.90;;;;;;5009735;28;20021;-71
2022/04/29 04:21:43;;;;;;;14.00;8.50;;;12.10;99.90;;;;;;5010040;28;20022;-72
2022/04/29 04:24:10;;;;;;;22.90;9.52;;;12.10;99.90;;;;;;5010353;28;20497;-71
2022/04/29 04:26:36;;;;;;;14.35;8.85;;;11.90;99.90;;;;;;5012262;28;20124;-72
2022/04/29 04:29:01;;;;;;;13.27;8.15;;;11.90;99.90;;;;;;5027180;28;20116;-70
2022/04/29 04:31:27;;;;;;;16.55;8.25;;;12.00;99.90;;;;;;5034482;28;20049;-71
2022/04/29 04:33:53;;;;;;;12.85;8.02;;;12.00;99.90;;;;;;5033673;28;20032;-71
2022/04/29 04:36:19;;;;;;;13.73;8.23;;;11.90;99.90;;;;;;5016217;28;20080;-71
2022/04/29 04:38:47;;;;;;;13.57;8.48;;;11.90;99.90;;;;;;5015724;28;20366;-72
2022/04/29 04:41:15;;;;;;;15.35;8.68;;;11.90;99.90;;;;;;5016189;28;20048;-73
2022/04/29 04:43:44;;;;;;;13.27;8.23;;;11.90;99.90;;;;;;5033605;28;20034;-71
2022/04/29 04:46:12;;;;;;;14.15;7.70;;;12.00;99.90;;;;;;5016180;28;20022;-59
2022/04/29 04:48:38;;;;;;;16.15;7.95;;;12.10;99.90;;;;;;5015472;28;20423;-70
2022/04/29 04:51:04;;;;;;;14.85;8.13;;;12.80;99.90;;;;;;5015962;28;20026;-71
2022/04/29 04:53:30;;;;;;;12.13;8.05;;;12.50;99.90;;;;;;5016129;28;20323;-72
2022/04/29 04:55:56;;;;;;;14.50;8.40;;;12.50;99.90;;;;;;5015418;28;20108;-73
2022/04/29 04:58:22;;;;;;;13.55;8.15;;;12.50;99.90;;;;;;5033696;28;20133;-72
2022/04/29 05:00:47;;;;;;;13.27;7.90;;;12.60;99.90;;;;;;5033481;28;20107;-74
2022/04/29 05:03:13;;;;;;;10.30;7.60;;;12.60;99.90;;;;;;5015394;28;20045;-72
2022/04/29 05:05:39;;;;;;;11.27;8.15;;;12.60;99.90;;;;;;5015249;28;20080;-66
2022/04/29 05:08:06;;;;;;;14.00;7.82;;;12.50;99.90;;;;;;5015762;28;20033;-63
2022/04/29 05:10:31;;;;;;;13.60;7.75;;;13.10;99.90;;;;;;5015602;28;20022;-72
2022/04/29 05:12:57;;;;;;;14.10;8.07;;;13.20;99.90;;;;;;5015073;28;20438;-69
2022/04/29 05:15:23;;;;;;;14.90;7.97;;;13.20;99.90;;;;;;5033664;28;20021;-69
2022/04/29 05:17:48;;;;;;;13.70;8.40;;;13.50;99.90;;;;;;5032658;28;20116;-69
2022/04/29 05:20:16;;;;;;;19.40;7.85;;;13.60;99.90;;;;;;5033179;28;20025;-70
2022/04/29 05:22:42;;;;;;;13.25;7.97;;;13.90;99.90;;;;;;5032432;28;20399;-68
2022/04/29 05:25:08;;;;;;;10.30;7.88;;;13.90;99.70;;;;;;5032940;28;20040;-70
2022/04/29 05:27:33;;;;;;;11.63;8.07;;;14.00;99.70;;;;;;5015222;28;20022;-71
2022/04/29 05:29:59;;;;;;;11.80;8.10;;;13.60;99.90;;;;;;5032795;28;20045;-71
2022/04/29 05:32:25;;;;;;;13.75;7.93;;;13.60;99.90;;;;;;5033017;28;20029;-71
2022/04/29 05:34:52;;;;;;;13.93;8.18;;;13.50;99.90;;;;;;5032294;28;20021;-71
2022/04/29 05:37:19;;;;;;;15.10;9.18;;;13.60;99.90;;;;;;5014778;28;20049;-72
2022/04/29 05:42:29;;;;;;;15.43;8.35;;;13.50;99.90;;;;;;5032741;28;20520;-74
2022/04/29 05:44:55;;;;;;;12.98;8.07;;;13.60;99.80;;;;;;5014435;28;20158;-71
2022/04/29 05:47:21;;;;;;;13.95;8.05;;;13.70;99.80;;;;;;5032793;28;20403;-72
2022/04/29 05:49:46;;;;;;;18.00;8.40;;;13.70;99.80;;;;;;5014261;28;20036;-70
2022/04/29 05:52:12;;;;;;;17.73;9.10;;;13.80;99.60;;;;;;5032368;28;20026;-70
2022/04/29 05:54:39;;;;;;;13.23;8.63;;;13.90;99.40;;;;;;5013666;28;20029;-69
2022/04/29 05:57:05;;;;;;;15.68;7.38;;;14.00;99.10;;;;;;5014284;28;20072;-72
2022/04/29 05:59:31;;;;;;;12.60;8.23;;;14.00;98.90;;;;;;5014349;28;20033;-71
2022/04/29 06:01:57;;;;;;;17.70;8.65;;;14.00;99.00;;;;;;5032147;28;20279;-73
2022/04/29 06:04:23;;;;;;;10.77;8.02;;;14.00;99.00;;;;;;5032733;28;20068;-71
2022/04/29 06:06:49;;;;;;;17.77;8.43;;;14.10;98.80;;;;;;5031903;28;20053;-71
2022/04/29 06:09:15;;;;;;;10.13;8.13;;;14.00;99.00;;;;;;5014711;28;20383;-71
2022/04/29 06:11:40;;;;;;;16.55;7.65;;;14.00;99.00;;;;;;5031644;28;20017;-70
2022/04/29 06:14:06;;;;;;;11.98;7.97;;;14.00;99.10;;;;;;5032387;28;20355;-72
2022/04/29 06:16:32;;;;;;;16.58;7.82;;;14.00;99.00;;;;;;5014036;28;20021;-71
2022/04/29 06:18:58;;;;;;;14.35;8.23;;;14.10;98.80;;;;;;5031368;28;20143;-72
2022/04/29 06:21:23;;;;;;;15.02;8.07;;;14.20;99.10;;;;;;5014451;28;20022;-71
2022/04/29 06:23:49;;;;;;;14.77;8.07;;;14.00;99.00;;;;;;5031482;28;20045;-72
2022/04/29 06:26:15;;;;;;;14.13;8.38;;;14.00;99.30;;;;;;5014520;28;20039;-72
2022/04/29 06:28:41;;;;;;;20.90;9.88;;;14.00;99.40;;;;;;5031402;28;20065;-71
2022/04/29 06:31:07;;;;;;;16.25;8.07;;;14.10;99.50;;;;;;5031918;28;20028;-71
2022/04/29 06:33:34;;;;;;;11.18;7.10;;;14.10;99.40;;;;;;5031821;28;20481;-72
2022/04/29 06:36:01;;;;;;;12.80;8.23;;;14.30;99.20;;;;;;5030810;28;20502;-70
2022/04/29 06:38:27;;;;;;;13.43;7.97;;;14.30;99.20;;;;;;5031641;28;20454;-71
2022/04/29 06:40:55;;;;;;;9.57;7.85;;;14.30;99.20;;;;;;5031063;28;20028;-72
2022/04/29 06:43:21;;;;;;;15.05;8.38;;;14.40;99.30;;;;;;5013642;28;20075;-72
2022/04/29 06:45:47;;;;;;;22.13;10.30;;;14.40;99.10;;;;;;5013186;28;20021;-70
2022/04/29 06:48:13;;;;;;;11.10;6.95;;;14.40;99.20;;;;;;5012602;28;20021;-71
2022/04/29 06:50:40;;;;;;;13.98;7.53;;;14.50;99.10;;;;;;5013815;28;20117;-71
2022/04/29 06:53:06;;;;;;;13.20;7.95;;;14.50;99.30;;;;;;5031655;28;20305;-72
2022/04/29 06:55:36;;;;;;;13.23;7.47;;;14.40;99.30;;;;;;5013393;28;20433;-71
2022/04/29 06:58:01;;;;;;;11.38;7.78;;;14.50;98.80;;;;;;5030191;28;20490;-71
2022/04/29 07:00:27;;;;;;;12.07;8.55;;;14.40;99.00;;;;;;5031638;28;20026;-72
2022/04/29 07:02:54;;;;;;;11.45;7.90;;;14.50;99.30;;;;;;5028201;28;20053;-70
2022/04/29 07:05:20;;;;;;;16.23;8.82;;;14.50;99.20;;;;;;5013089;28;20031;-70
2022/04/29 07:07:49;;;;;;;11.98;7.70;;;14.40;99.80;;;;;;5012959;28;20021;-71
2022/04/29 07:10:15;;;;;;;13.90;7.88;;;14.60;99.30;;;;;;5013627;28;20029;-71
2022/04/29 07:12:48;;;;;;;10.15;7.13;;;14.30;99.50;;;;;;5012419;28;20030;-67
2022/04/29 07:15:14;;;;;;;10.75;7.30;;;14.40;99.90;;;;;;5031510;28;20021;-73
2022/04/29 07:17:44;;;;;;;11.45;8.05;;;14.40;99.80;;;;;;5023924;28;20037;-71
2022/04/29 07:20:12;;;;;;;10.48;7.10;;;14.40;99.70;;;;;;5006626;28;20029;-71
2022/04/29 07:22:40;;;;;;;12.82;8.20;;;14.50;99.40;;;;;;5012016;28;20043;-73
2022/04/29 07:25:07;;;;;;;11.80;8.35;;;14.60;98.80;;;;;;5012229;28;20546;-72
2022/04/29 07:27:33;;;;;;;15.55;7.65;;;14.80;98.60;;;;;;5031146;28;20017;-74
2022/04/29 07:30:04;;;;;;;18.83;8.45;;;14.80;98.40;;;;;;5012740;28;20378;-73
2022/04/29 07:32:30;;;;;;;14.57;8.05;;;15.00;98.40;;;;;;5013054;28;20021;-72
2022/04/29 07:43:14;;;;;;;13.27;7.00;;;15.60;97.80;;;;;;5030748;28;20535;-70
2022/04/29 07:45:42;;;;;;;14.15;8.02;;;15.70;97.50;;;;;;5012459;28;20029;-71
2022/04/29 07:48:08;;;;;;;11.98;7.63;;;15.90;97.20;;;;;;5027839;28;20447;-70
2022/04/29 07:50:35;;;;;;;18.70;8.73;;;16.00;97.40;;;;;;5013246;28;20071;-71
2022/04/29 07:53:02;;;;;;;9.88;7.47;;;16.30;97.00;;;;;;5012994;28;20390;-71
2022/04/29 07:55:28;;;;;;;10.48;8.07;;;16.40;96.40;;;;;;4993322;28;20030;-71
2022/04/29 07:57:55;;;;;;;16.90;7.85;;;16.50;96.20;;;;;;4992644;28;20030;-72
2022/04/29 08:00:22;;;;;;;13.80;7.80;;;16.60;95.90;;;;;;4995105;28;20320;-71
2022/04/29 08:02:47;;;;;;;14.60;7.55;;;16.50;95.80;;;;;;5014972;28;20467;-72
2022/04/29 08:05:13;;;;;;;10.95;7.13;;;16.20;96.20;;;;;;4999512;28;20132;-70
2022/04/29 08:07:39;;;;;;;11.38;7.32;;;16.30;96.10;;;;;;5016396;28;20029;-70
2022/04/29 08:10:06;;;;;;;14.30;9.05;;;16.40;96.00;;;;;;5015723;28;20029;-73
2022/04/29 08:12:31;;;;;;;16.58;9.25;;;16.50;96.00;;;;;;5013658;28;20014;-71
2022/04/29 08:15:00;;;;;;;13.75;8.40;;;16.50;95.20;;;;;;5015507;28;20100;-69
2022/04/29 08:17:26;;;;;;;14.88;7.28;;;16.70;95.40;;;;;;5030273;28;20087;-71
2022/04/29 08:19:52;;;;;;;9.95;8.02;;;17.10;95.20;;;;;;5016635;28;20021;-72
2022/04/29 08:22:19;;;;;;;10.48;7.97;;;17.40;94.70;;;;;;5016928;28;20075;-74
2022/04/29 08:24:45;;;;;;;12.85;5.90;;;17.70;96.90;;;;;;5034740;28;20541;-75
2022/04/29 08:27:11;;;;;;;13.27;7.88;;;17.90;99.80;;;;;;5015613;28;20025;-71
2022/04/29 08:29:38;;;;;;;10.88;6.85;;;18.10;94.90;;;;;;5034264;28;20082;-71
2022/04/29 08:32:04;;;;;;;11.80;6.53;;;18.10;94.10;;;;;;5033336;28;20044;-72
2022/04/29 08:34:31;;;;;;;10.00;6.40;;;18.20;94.30;;;;;;5034038;28;20481;-72
2022/04/29 08:36:56;;;;;;;8.38;6.28;;;18.60;93.90;;;;;;5032990;28;20160;-71
2022/04/29 08:39:22;;;;;;;12.43;7.10;;;18.60;93.10;;;;;;5015538;28;20435;-72
2022/04/29 08:41:50;;;;;;;12.32;6.57;;;18.70;93.30;;;;;;5014366;28;20025;-71
2022/04/29 08:44:19;;;;;;;20.38;6.50;;;19.00;92.80;;;;;;5015650;28;20033;-73
2022/04/29 08:46:45;;;;;;;9.43;7.40;;;19.20;92.60;;;;;;5015786;28;20430;-74
2022/04/29 08:49:11;;;;;;;15.82;7.68;;;19.20;92.00;;;;;;5015307;28;20048;-69
2022/04/29 08:51:40;;;;;;;17.00;9.18;;;19.30;97.60;;;;;;5015875;28;20018;-67
2022/04/29 08:54:06;;;;;;;10.77;6.47;;;19.20;96.90;;;;;;5032657;28;20496;-67
2022/04/29 08:59:19;;;;;;;9.73;7.30;;;19.80;96.90;;;;;;5030569;28;20493;-70
2022/04/29 09:01:45;;;;;;;10.88;6.70;;;19.90;93.60;;;;;;5014919;28;20018;-72
2022/04/29 09:04:11;;;;;;;11.60;5.90;;;20.00;92.40;;;;;;5012446;28;20451;-71
2022/04/29 09:06:50;;;;;;;8.75;6.35;;;20.30;91.40;;;;;;5011713;28;20033;-72
2022/04/29 09:09:20;;;;;;;8.80;6.30;;;20.20;90.90;;;;;;5025388;28;20021;-68
2022/04/29 09:11:47;;;;;;;10.73;6.10;;;20.30;90.70;;;;;;5006838;28;20103;-72
2022/04/29 09:14:24;;;;;;;12.63;6.22;;;20.30;90.40;;;;;;5025102;28;20026;-70
2022/04/29 09:16:50;;;;;;;13.70;7.97;;;20.60;90.30;;;;;;5002980;28;20117;-72
2022/04/29 09:19:35;;;;;;;7.20;5.88;;;20.40;90.30;;;;;;5028116;28;20043;-71
2022/04/29 09:22:07;;;;;;;16.02;6.60;;;20.30;90.00;;;;;;5013696;28;20025;-71
2022/04/29 09:24:34;;;;;;;5.75;5.15;;;20.50;87.00;;;;;;5014937;28;20052;-71
2022/04/29 09:27:01;;;;;;;6.90;5.60;;;20.10;88.90;;;;;;5014080;28;20485;-72
2022/04/29 09:29:29;;;;;;;8.25;6.00;;;20.30;86.20;;;;;;5014987;28;20057;-70
2022/04/29 09:31:58;;;;;;;9.82;5.93;;;19.60;86.20;;;;;;5013960;28;20116;-71
2022/04/29 09:34:53;;;;;;;10.82;6.22;;;20.00;85.90;;;;;;5030301;28;20076;-72
2022/04/29 09:37:30;;;;;;;8.63;6.38;;;20.30;85.20;;;;;;5012489;28;20079;-73
2022/04/29 09:40:06;;;;;;;14.32;6.80;;;20.60;84.60;;;;;;4994636;28;20482;-71
2022/04/29 09:42:39;;;;;;;10.07;5.82;;;19.80;85.20;;;;;;4994746;28;20121;-73
2022/04/29 09:45:17;;;;;;;8.60;5.15;;;20.50;84.00;;;;;;5011826;28;20034;-72
2022/04/29 09:47:43;;;;;;;11.75;6.78;;;20.90;84.10;;;;;;4994499;28;20359;-71
2022/04/29 09:50:09;;;;;;;11.02;6.03;;;21.30;82.70;;;;;;4993742;28;20022;-70
2022/04/29 09:52:39;;;;;;;14.57;7.43;;;21.70;83.00;;;;;;5012275;28;20132;-72
2022/04/29 09:55:19;;;;;;;13.00;5.63;;;22.20;82.00;;;;;;4994086;28;20033;-76
2022/04/29 09:58:01;;;;;;;8.93;6.05;;;22.80;82.00;;;;;;4994242;28;20050;-72
2022/04/29 10:00:27;;;;;;;7.90;5.75;;;23.40;80.50;;;;;;5012262;28;20104;-71
2022/04/29 10:02:53;;;;;;;12.88;6.30;;;23.10;79.90;;;;;;4993778;28;20412;-71
2022/04/29 10:05:19;;;;;;;7.15;5.13;;;23.50;78.70;;;;;;4994557;28;20044;-71
2022/04/29 10:07:46;;;;;;;9.85;6.28;;;23.50;78.00;;;;;;5012207;28;20034;-71
2022/04/29 10:10:12;;;;;;;8.88;6.25;;;23.50;76.20;;;;;;4993896;28;20037;-72
2022/04/29 10:12:39;;;;;;;7.65;4.90;;;23.60;76.90;;;;;;5012225;28;20026;-70
2022/04/29 10:15:06;;;;;;;16.70;11.73;;;23.80;75.10;;;;;;5011696;28;20030;-71
2022/04/29 10:23:09;;;;;;;5.80;4.35;;;23.60;73.70;;;;;;5010613;28;20083;-72
2022/04/29 10:25:39;;;;;;;16.15;5.13;;;24.00;72.70;;;;;;4993961;28;20450;-72
2022/04/29 10:28:07;;;;;;;11.10;5.53;;;24.10;71.80;;;;;;4992853;28;20060;-72
2022/04/29 10:30:37;;;;;;;10.38;5.88;;;23.80;70.60;;;;;;4993993;28;20104;-71
2022/04/29 10:33:03;;;;;;;8.90;5.27;;;22.70;72.30;;;;;;4993001;28;20036;-71
2022/04/29 10:35:43;;;;;;;6.80;4.40;;;22.70;73.10;;;;;;5011613;28;20269;-70
2022/04/29 10:38:27;;;;;;;9.27;5.45;;;23.10;73.20;;;;;;5010977;28;20144;-72
2022/04/29 10:41:18;;;;;;;9.43;6.25;;;23.30;72.50;;;;;;5011848;28;20048;-72
2022/04/29 10:43:53;;;;;;;8.55;7.28;;;23.40;73.40;;;;;;5011900;28;20097;-71
2022/04/29 10:46:35;;;;;;;11.40;7.40;;;23.40;71.40;;;;;;4994089;28;20036;-70
2022/04/29 10:49:26;;;;;;;8.93;5.63;;;23.40;72.20;;;;;;5011215;28;20125;-72
2022/04/29 10:51:56;;;;;;;7.37;5.80;;;23.50;71.80;;;;;;5012410;28;20037;-71
2022/04/29 10:54:34;;;;;;;9.30;4.68;;;23.00;69.40;;;;;;5011038;28;20390;-71
2022/04/29 10:57:06;;;;;;;7.85;5.18;;;22.40;69.80;;;;;;5010517;28;20475;-71
2022/04/29 10:59:57;;;;;;;5.93;4.40;;;22.20;69.70;;;;;;5010814;28;20049;-70
2022/04/29 11:02:28;;;;;;;7.90;4.47;;;22.00;70.00;;;;;;5010998;28;20033;-72
2022/04/29 11:04:55;;;;;;;6.28;4.13;;;22.20;70.10;;;;;;4993232;28;20133;-74
2022/04/29 11:07:44;;;;;;;8.38;5.20;;;22.40;71.60;;;;;;4993674;28;20026;-72
2022/04/29 11:10:14;;;;;;;13.13;9.27;;;22.20;71.30;;;;;;5010528;28;20021;-71
2022/04/29 11:12:41;;;;;;;10.15;5.05;;;21.70;71.70;;;;;;5010567;28;20367;-70
2022/04/29 11:15:07;;;;;;;6.95;5.05;;;22.00;71.80;;;;;;5010292;28;20033;-73
2022/04/29 11:17:38;;;;;;;14.35;4.60;;;22.40;72.40;;;;;;5011899;28;20037;-72
2022/04/29 11:20:24;;;;;;;8.70;4.95;;;22.00;70.50;;;;;;5011902;28;20108;-71
2022/04/29 11:26:00;;;;;;;9.65;5.13;;;22.10;68.60;;;;;;5030345;28;20419;-71
2022/04/29 11:28:27;;;;;;;15.82;5.55;;;21.90;70.30;;;;;;5015724;28;20475;-72
2022/04/29 11:31:04;;;;;;;7.88;4.43;;;22.10;69.20;;;;;;5028740;28;20331;-71
2022/04/29 11:33:30;;;;;;;6.30;4.35;;;21.80;68.00;;;;;;5028472;28;20022;-71
2022/04/29 11:36:12;;;;;;;12.73;3.97;;;21.50;68.20;;;;;;5028760;28;20211;-72
2022/04/29 11:38:47;;;;;;;7.45;5.85;;;21.30;68.50;;;;;;5028972;28;20311;-72
2022/04/29 11:41:21;;;;;;;17.52;6.45;;;21.60;69.40;;;;;;5029282;28;20423;-73
2022/04/29 11:43:49;;;;;;;10.88;5.65;;;21.80;69.50;;;;;;5028318;28;20025;-72
2022/04/29 11:46:17;;;;;;;7.70;3.42;;;21.80;69.00;;;;;;5007954;28;21805;-73
2022/04/29 11:48:59;;;;;;;6.50;3.17;;;22.00;68.40;;;;;;5008650;28;20022;-71
2022/04/29 11:51:27;;;;;;;9.07;3.28;;;22.10;67.70;;;;;;5009123;28;20113;-73
2022/04/29 11:53:53;;;;;;;6.90;3.20;;;22.20;67.70;;;;;;5010295;28;20497;-71
2022/04/29 11:56:19;;;;;;;7.00;3.13;;;22.20;66.90;;;;;;4991886;28;20032;-68
2022/04/29 11:58:45;;;;;;;5.18;2.65;;;22.30;66.90;;;;;;4991663;28;20026;-71
2022/04/29 12:01:11;;;;;;;8.55;4.18;;;22.50;66.30;;;;;;5009232;28;20091;-70
2022/04/29 12:03:45;;;;;;;5.13;3.78;;;22.80;63.80;;;;;;5009298;28;20455;-71
2022/04/29 12:06:10;;;;;;;4.72;3.13;;;23.00;65.70;;;;;;4991522;28;20096;-71
2022/04/29 12:08:40;;;;;;;7.88;5.75;;;23.10;66.20;;;;;;4990833;28;20022;-72
2022/04/29 12:11:06;;;;;;;12.77;4.55;;;23.20;67.80;;;;;;4982563;28;20029;-71
2022/04/29 12:13:33;;;;;;;5.05;3.25;;;23.10;69.10;;;;;;4972547;28;20030;-71
2022/04/29 12:16:01;;;;;;;10.40;4.07;;;23.20;68.40;;;;;;4972765;28;20022;-68
2022/04/29 12:18:46;;;;;;;6.85;5.32;;;23.00;68.80;;;;;;4990789;28;20014;-73
2022/04/29 12:21:20;;;;;;;5.35;4.00;;;23.00;69.50;;;;;;4972219;28;20070;-73
2022/04/29 12:23:45;;;;;;;7.10;4.68;;;23.10;69.70;;;;;;5007358;28;20469;-72
2022/04/29 12:26:11;;;;;;;7.03;4.97;;;22.80;68.80;;;;;;4985762;28;20021;-72
2022/04/29 12:28:37;;;;;;;12.45;5.72;;;23.10;69.20;;;;;;5008808;28;20168;-72
2022/04/29 12:36:58;;;;;;;12.23;5.18;;;23.50;68.70;;;;;;5009716;28;20091;-71
2022/04/29 12:39:33;;;;;;;6.40;4.68;;;23.60;66.90;;;;;;4991668;28;20025;-71
2022/04/29 12:42:19;;;;;;;8.60;3.65;;;23.80;66.10;;;;;;5008917;28;20026;-72
2022/04/29 12:47:38;;;;;;;6.32;4.93;;;23.30;61.60;;;;;;5011710;28;20127;-71
2022/04/29 12:50:28;;;;;;;12.68;4.40;;;23.00;60.60;;;;;;4994925;28;20048;-71
2022/04/29 12:53:09;;;;;;;6.68;4.72;;;23.60;62.30;;;;;;5013702;28;20018;-74
2022/04/29 12:55:44;;;;;;;;;;;24.10;62.10;;;;;;5014288;28;20133;-72
2022/04/29 12:58:19;;;;;;;4.20;3.10;;;24.50;61.20;;;;;;4994856;28;19905;-73
2022/04/29 13:00:50;;;;;;;4.82;2.40;;;24.60;59.10;;;;;;5013167;28;20036;-73
2022/04/29 13:03:19;;;;;;;5.10;3.22;;;24.60;57.40;;;;;;4994430;28;20103;-73
2022/04/29 13:05:46;;;;;;;4.55;2.72;;;24.70;58.60;;;;;;4995201;28;20036;-71
2022/04/29 13:08:12;;;;;;;2.42;2.00;;;24.90;57.90;;;;;;4995122;28;20030;-71
2022/04/29 13:10:58;;;;;;;6.63;4.82;;;24.90;56.40;;;;;;4995421;28;20108;-72
2022/04/29 13:13:25;;;;;;;5.22;2.28;;;24.80;57.40;;;;;;5012639;28;20029;-72
2022/04/29 13:15:52;;;;;;;6.80;2.95;;;24.70;57.50;;;;;;5012982;28;20121;-73
2022/04/29 13:18:19;;;;;;;7.22;2.97;;;24.40;57.80;;;;;;4993149;28;20049;-73
2022/04/29 13:20:46;;;;;;;10.68;8.18;;;24.40;57.90;;;;;;5009820;28;20497;-71